createdAt,value
2022-09-17T00:07:03.684Z,88.07
2022-09-17T00:17:06.336Z,85.14
2022-09-17T00:27:10.345Z,84.82
2022-09-17T00:37:13.388Z,86.06
2022-09-17T00:47:25.489Z,88.35
2022-09-17T00:57:29.060Z,89.10
2022-09-17T01:07:45.159Z,88.89
2022-09-17T01:17:59.613Z,88.41
2022-09-17T01:28:22.657Z,88.49
2022-09-17T01:38:31.554Z,88.92
2022-09-17T01:48:38.442Z,88.25
2022-09-17T01:58:46.980Z,85.74
2022-09-17T02:08:54.904Z,83.00
2022-09-17T02:19:04.686Z,78.69
2022-09-17T02:29:10.991Z,81.14
2022-09-17T02:39:15.033Z,80.42
2022-09-17T02:49:30.918Z,80.78
2022-09-17T02:59:41.808Z,81.94
2022-09-17T03:09:44.451Z,81.70
2022-09-17T03:19:48.466Z,82.55
2022-09-17T03:29:51.111Z,83.16
2022-09-17T03:39:55.186Z,83.29
2022-09-17T03:49:57.975Z,83.20
2022-09-17T04:00:02.467Z,83.33
2022-09-17T04:10:06.356Z,83.49
2022-09-17T04:20:11.060Z,82.62
2022-09-17T04:30:14.050Z,81.73
2022-09-17T04:40:18.336Z,81.39
2022-09-17T04:50:21.872Z,81.72
2022-09-17T05:00:26.805Z,81.92
2022-09-17T05:10:29.573Z,85.91
2022-09-17T05:20:33.562Z,86.03
2022-09-17T05:30:36.411Z,86.43
2022-09-17T05:40:40.485Z,86.21
2022-09-17T05:50:43.223Z,85.64
2022-09-17T06:00:49.184Z,85.16
2022-09-17T06:10:52.024Z,84.61
2022-09-17T06:20:56.798Z,84.93
2022-09-17T06:31:02.116Z,84.78
2022-09-17T06:41:06.448Z,82.23
2022-09-17T06:51:12.039Z,81.73
2022-09-17T07:01:16.181Z,80.82
2022-09-17T07:11:19.004Z,78.27
2022-09-17T07:21:23.024Z,75.82
2022-09-17T07:31:25.787Z,75.08
2022-09-17T07:41:29.837Z,75.48
2022-09-17T07:51:32.567Z,74.69
2022-09-17T08:01:37.159Z,66.94
2022-09-17T08:11:56.699Z,70.27
2022-09-17T08:22:01.088Z,68.20
2022-09-17T08:32:04.284Z,59.98
2022-09-17T08:42:14.182Z,61.92
2022-09-17T08:52:58.134Z,61.49
2022-09-17T09:03:20.658Z,60.95
2022-09-17T09:13:26.043Z,63.02
2022-09-17T09:23:35.315Z,63.58
2022-09-17T09:33:43.319Z,60.01
2022-09-17T09:44:07.126Z,61.05
2022-09-17T09:54:25.552Z,60.76
2022-09-17T10:04:32.163Z,61.64
2022-09-17T10:14:36.994Z,60.93
2022-09-17T10:24:41.015Z,57.07
2022-09-17T10:34:57.982Z,67.22
2022-09-17T10:45:02.176Z,71.40
2022-09-17T10:55:22.207Z,65.17
2022-09-17T11:05:41.086Z,53.04
2022-09-17T11:15:56.369Z,51.08
2022-09-17T11:26:03.661Z,32.87
2022-09-17T11:36:14.837Z,34.63
2022-09-17T11:46:24.030Z,45.01
2022-09-17T11:56:30.977Z,62.84
2022-09-17T12:06:41.382Z,63.98
2022-09-17T12:16:47.211Z,35.33
2022-09-17T12:27:14.023Z,29.11
2022-09-17T12:37:24.318Z,25.50
2022-09-17T12:48:00.908Z,32.76
2022-09-17T12:58:13.893Z,38.92
2022-09-17T13:09:13.164Z,41.61
2022-09-17T13:19:27.746Z,46.80
2022-09-17T13:30:05.388Z,45.30
2022-09-17T13:40:22.162Z,47.37
2022-09-17T13:50:33.584Z,46.67
2022-09-17T14:00:51.915Z,43.58
2022-09-17T14:10:56.617Z,47.99
2022-09-17T14:21:12.489Z,50.86
2022-09-17T14:31:21.394Z,50.47
2022-09-17T14:41:26.830Z,50.81
2022-09-17T14:51:30.956Z,49.78
2022-09-17T15:01:33.726Z,47.38
2022-09-17T15:11:43.626Z,48.81
2022-09-17T15:21:50.446Z,49.21
2022-09-17T15:31:54.826Z,44.74
2022-09-17T15:41:58.241Z,45.60
2022-09-17T15:52:31.382Z,47.05
2022-09-17T16:02:34.172Z,47.86
2022-09-17T16:12:38.418Z,48.41
2022-09-17T16:22:41.155Z,49.12
2022-09-17T16:32:45.539Z,52.78
2022-09-17T16:42:48.814Z,52.54
2022-09-17T16:52:53.457Z,52.50
2022-09-17T17:02:57.745Z,52.99
2022-09-17T17:13:02.109Z,51.27
2022-09-17T17:23:04.858Z,52.20
2022-09-17T17:33:08.866Z,54.07
2022-09-17T17:43:11.761Z,54.90
2022-09-17T17:53:15.827Z,56.28
2022-09-17T18:03:18.572Z,57.16
2022-09-17T18:13:22.982Z,57.71
2022-09-17T18:23:25.666Z,58.61
2022-09-17T18:33:29.649Z,60.06
2022-09-17T18:43:33.989Z,61.78
2022-09-17T18:53:39.426Z,63.21
2022-09-17T19:03:42.180Z,63.73
2022-09-17T19:13:48.642Z,64.42
2022-09-17T19:23:52.671Z,65.11
2022-09-17T19:33:58.398Z,65.59
2022-09-17T19:44:01.044Z,65.75
2022-09-17T19:54:06.760Z,64.79
2022-09-17T20:04:09.622Z,64.70
2022-09-17T20:14:13.730Z,64.89
2022-09-17T20:24:16.390Z,65.33
2022-09-17T20:34:20.546Z,66.85
2022-09-17T20:44:23.257Z,69.51
2022-09-17T20:54:27.267Z,70.29
2022-09-17T21:04:29.952Z,71.22
2022-09-17T21:14:33.979Z,72.03
2022-09-17T21:24:36.653Z,74.24
2022-09-17T21:34:40.659Z,74.95
2022-09-17T21:44:43.580Z,75.34
2022-09-17T21:54:47.631Z,75.99
2022-09-17T22:04:50.308Z,76.78
2022-09-17T22:14:54.335Z,77.69
2022-09-17T22:24:57.025Z,77.05
2022-09-17T22:35:01.030Z,76.18
2022-09-17T22:45:03.943Z,74.51
2022-09-17T22:55:08.346Z,74.47
2022-09-17T23:05:11.000Z,75.28
2022-09-17T23:15:15.482Z,75.81
2022-09-17T23:25:18.302Z,76.43
2022-09-17T23:35:22.627Z,77.07
2022-09-17T23:45:25.347Z,77.29
2022-09-17T23:55:29.371Z,78.15
